createdAt,value
2022-11-29T00:01:36.477Z,91.70
2022-11-29T00:04:04.967Z,92.83
2022-11-29T00:06:34.909Z,91.78
2022-11-29T00:09:07.797Z,91.87
2022-11-29T00:11:54.636Z,91.82
2022-11-29T00:14:23.771Z,91.75
2022-11-29T00:16:54.024Z,92.54
2022-11-29T00:19:22.725Z,92.63
2022-11-29T00:21:51.053Z,91.36
2022-11-29T00:24:19.284Z,91.95
2022-11-29T00:26:47.526Z,91.42
2022-11-29T00:29:16.052Z,91.91
2022-11-29T00:31:44.711Z,91.60
2022-11-29T00:34:14.448Z,91.43
2022-11-29T00:36:42.879Z,91.34
2022-11-29T00:39:12.648Z,91.68
2022-11-29T00:41:40.910Z,91.49
2022-11-29T00:44:09.177Z,91.60
2022-11-29T00:46:37.566Z,91.46
2022-11-29T00:49:06.540Z,92.05
2022-11-29T00:51:36.260Z,92.00
2022-11-29T00:54:04.637Z,92.20
2022-11-29T00:56:32.909Z,90.96
2022-11-29T00:59:01.155Z,90.69
2022-11-29T01:01:29.455Z,90.73
2022-11-29T01:03:57.821Z,91.83
2022-11-29T01:06:26.103Z,91.29
2022-11-29T01:08:55.872Z,90.85
2022-11-29T01:11:26.184Z,90.70
2022-11-29T01:13:57.022Z,90.72
2022-11-29T01:16:25.656Z,91.91
2022-11-29T01:18:53.979Z,90.83
2022-11-29T01:21:23.756Z,91.11
2022-11-29T01:23:52.968Z,91.13
2022-11-29T01:26:24.525Z,89.94
2022-11-29T01:28:54.236Z,90.28
2022-11-29T01:31:24.877Z,90.92
2022-11-29T01:33:55.047Z,90.19
2022-11-29T01:36:23.325Z,91.00
2022-11-29T01:38:51.706Z,89.75
2022-11-29T01:41:23.922Z,90.54
2022-11-29T01:44:01.651Z,90.08
2022-11-29T01:46:31.121Z,90.68
2022-11-29T01:49:01.597Z,90.02
2022-11-29T01:51:30.444Z,90.92
2022-11-29T01:53:58.826Z,90.34
2022-11-29T01:56:29.737Z,90.30
2022-11-29T01:58:57.987Z,90.84
2022-11-29T02:01:26.861Z,90.29
2022-11-29T02:03:55.299Z,89.94
2022-11-29T02:06:23.774Z,89.64
2022-11-29T02:08:51.972Z,89.11
2022-11-29T02:11:53.703Z,90.13
2022-11-29T02:14:36.600Z,89.90
2022-11-29T02:17:11.310Z,89.66
2022-11-29T02:20:17.908Z,89.38
2022-11-29T02:22:50.586Z,88.90
2022-11-29T02:25:29.097Z,88.72
2022-11-29T02:28:31.632Z,87.15
2022-11-29T02:31:30.673Z,87.15
2022-11-29T02:34:17.322Z,87.46
2022-11-29T02:37:15.569Z,86.67
2022-11-29T02:39:59.511Z,87.38
2022-11-29T02:42:56.018Z,86.62
2022-11-29T02:45:51.629Z,87.47
2022-11-29T02:48:31.155Z,87.91
2022-11-29T02:51:06.392Z,87.46
2022-11-29T02:53:39.648Z,87.64
2022-11-29T02:56:11.197Z,86.79
2022-11-29T02:58:45.281Z,87.15
2022-11-29T03:01:19.925Z,87.24
2022-11-29T03:03:53.912Z,88.11
2022-11-29T03:06:30.889Z,86.71
2022-11-29T03:09:04.071Z,87.21
2022-11-29T03:11:38.620Z,86.30
2022-11-29T03:14:15.654Z,86.51
2022-11-29T03:16:48.562Z,86.78
2022-11-29T03:19:38.242Z,85.79
2022-11-29T03:22:13.117Z,86.88
2022-11-29T03:24:45.358Z,85.96
2022-11-29T03:27:15.484Z,85.51
2022-11-29T03:29:48.162Z,85.16
2022-11-29T03:32:20.254Z,85.38
2022-11-29T03:34:57.511Z,86.09
2022-11-29T03:37:31.567Z,85.31
2022-11-29T03:40:05.677Z,85.48
2022-11-29T03:42:37.358Z,86.68
2022-11-29T03:45:09.168Z,87.22
2022-11-29T03:47:41.924Z,87.45
2022-11-29T03:50:15.407Z,86.89
2022-11-29T03:52:50.439Z,86.86
2022-11-29T03:55:33.220Z,86.56
2022-11-29T03:58:19.128Z,86.19
2022-11-29T04:01:02.854Z,86.06
2022-11-29T04:03:43.733Z,87.72
2022-11-29T04:06:25.742Z,86.47
2022-11-29T04:09:11.744Z,87.36
2022-11-29T04:12:00.967Z,87.18
2022-11-29T04:15:04.776Z,86.50
2022-11-29T04:17:57.583Z,86.43
2022-11-29T04:20:48.683Z,86.25
2022-11-29T04:23:48.290Z,85.74
2022-11-29T04:26:45.068Z,86.53
2022-11-29T04:29:20.400Z,87.57
2022-11-29T04:32:12.660Z,87.56
2022-11-29T04:35:00.585Z,86.57
2022-11-29T04:37:46.334Z,87.14
2022-11-29T04:40:28.037Z,86.53
2022-11-29T04:43:07.327Z,87.89
2022-11-29T04:46:12.395Z,87.29
2022-11-29T04:48:52.923Z,87.17
2022-11-29T04:51:32.145Z,86.67
2022-11-29T04:54:07.813Z,86.36
2022-11-29T04:56:41.515Z,86.96
2022-11-29T04:59:14.956Z,87.17
2022-11-29T05:01:51.664Z,86.21
2022-11-29T05:04:23.018Z,86.40
2022-11-29T05:07:00.652Z,86.65
2022-11-29T05:09:38.271Z,86.77
2022-11-29T05:12:11.655Z,86.03
2022-11-29T05:14:46.509Z,87.31
2022-11-29T05:17:27.291Z,87.17
2022-11-29T05:20:14.053Z,86.88
2022-11-29T05:22:50.466Z,86.64
2022-11-29T05:25:39.794Z,87.45
2022-11-29T05:28:11.984Z,86.99
2022-11-29T05:31:13.090Z,87.74
2022-11-29T05:33:59.049Z,87.02
2022-11-29T05:36:36.792Z,87.53
2022-11-29T05:39:17.781Z,87.95
2022-11-29T05:41:59.204Z,86.55
2022-11-29T05:44:34.981Z,87.00
2022-11-29T05:47:05.937Z,87.44
2022-11-29T05:49:41.613Z,87.60
2022-11-29T05:52:25.579Z,87.10
2022-11-29T05:55:15.739Z,87.02
2022-11-29T05:57:48.443Z,88.05
2022-11-29T06:00:18.092Z,87.98
2022-11-29T06:02:55.581Z,87.76
2022-11-29T06:05:28.695Z,87.65
2022-11-29T06:08:01.326Z,87.24
2022-11-29T06:10:32.975Z,87.91
2022-11-29T06:13:08.981Z,87.08
2022-11-29T06:16:14.654Z,87.89
2022-11-29T06:19:16.526Z,86.87
2022-11-29T06:21:50.046Z,86.49
2022-11-29T06:24:31.313Z,86.45
2022-11-29T06:27:15.535Z,86.79
2022-11-29T06:29:46.683Z,87.97
2022-11-29T06:32:22.503Z,87.28
2022-11-29T06:34:55.965Z,88.38
2022-11-29T06:37:29.169Z,87.67
2022-11-29T06:39:57.857Z,87.29
2022-11-29T06:42:26.024Z,85.95
2022-11-29T06:44:54.895Z,86.76
2022-11-29T06:47:28.356Z,86.36
2022-11-29T06:50:00.528Z,86.77
2022-11-29T06:52:39.210Z,86.44
2022-11-29T06:55:13.799Z,86.74
2022-11-29T06:57:56.370Z,86.51
2022-11-29T07:00:27.180Z,86.25
2022-11-29T07:03:21.129Z,86.03
2022-11-29T07:05:50.047Z,86.58
2022-11-29T07:08:21.654Z,86.47
2022-11-29T07:10:53.231Z,86.27
2022-11-29T07:13:22.273Z,86.65
2022-11-29T07:15:56.999Z,84.95
2022-11-29T07:18:32.220Z,86.14
2022-11-29T07:21:08.544Z,86.56
2022-11-29T07:23:41.899Z,85.50
2022-11-29T07:26:15.120Z,85.73
2022-11-29T07:28:51.261Z,85.91
2022-11-29T07:31:30.325Z,86.56
2022-11-29T07:34:05.751Z,85.69
2022-11-29T07:36:41.854Z,84.98
2022-11-29T07:39:19.679Z,84.32
2022-11-29T07:41:53.668Z,84.01
2022-11-29T07:44:28.062Z,84.77
2022-11-29T07:46:56.288Z,83.65
2022-11-29T07:49:24.680Z,83.59
2022-11-29T07:51:55.752Z,83.21
2022-11-29T07:54:25.875Z,83.44
2022-11-29T07:56:54.337Z,83.23
2022-11-29T07:59:22.660Z,83.67
2022-11-29T08:01:50.948Z,84.73
2022-11-29T08:04:19.145Z,83.43
2022-11-29T08:06:47.415Z,84.01
2022-11-29T08:09:15.617Z,83.06
2022-11-29T08:11:45.603Z,83.29
2022-11-29T08:14:13.902Z,82.47
2022-11-29T08:16:42.150Z,82.01
2022-11-29T08:19:10.411Z,82.18
2022-11-29T08:21:38.705Z,81.70
2022-11-29T08:24:07.333Z,82.03
2022-11-29T08:26:35.643Z,83.27
2022-11-29T08:29:05.616Z,82.47
2022-11-29T08:31:33.870Z,82.39
2022-11-29T08:34:02.100Z,83.03
2022-11-29T08:36:30.396Z,82.02
2022-11-29T08:39:04.724Z,82.19
2022-11-29T08:41:35.971Z,82.66
2022-11-29T08:44:05.864Z,82.95
2022-11-29T08:46:47.880Z,81.69
2022-11-29T08:49:16.081Z,82.37
2022-11-29T08:51:44.401Z,82.34
2022-11-29T08:54:11.749Z,81.97
2022-11-29T08:59:29.986Z,80.98
2022-11-29T09:01:58.264Z,80.74
2022-11-29T09:04:26.557Z,80.98
2022-11-29T09:06:56.499Z,81.31
2022-11-29T09:09:24.729Z,80.67
2022-11-29T09:11:53.005Z,81.41
2022-11-29T09:14:23.016Z,80.93
2022-11-29T09:16:52.633Z,80.62
2022-11-29T09:19:20.909Z,80.08
2022-11-29T09:21:49.175Z,79.24
2022-11-29T09:24:17.409Z,78.87
2022-11-29T09:26:48.569Z,78.96
2022-11-29T09:29:18.001Z,79.29
2022-11-29T09:31:46.488Z,79.51
2022-11-29T09:34:17.129Z,78.60
2022-11-29T09:36:45.423Z,79.92
2022-11-29T09:39:13.665Z,79.25
2022-11-29T09:41:51.830Z,78.90
2022-11-29T09:44:26.196Z,78.21
2022-11-29T09:47:00.788Z,78.90
2022-11-29T09:49:44.852Z,78.39
2022-11-29T09:52:19.718Z,79.75
2022-11-29T09:54:56.037Z,78.44
2022-11-29T09:57:27.225Z,79.40
2022-11-29T09:59:59.064Z,78.33
2022-11-29T10:02:33.131Z,78.87
2022-11-29T10:05:07.918Z,79.05
2022-11-29T10:07:39.751Z,78.76
2022-11-29T10:10:14.018Z,80.81
2022-11-29T10:12:47.105Z,80.37
2022-11-29T10:15:19.743Z,80.32
2022-11-29T10:17:52.114Z,80.29
2022-11-29T10:20:24.096Z,80.09
2022-11-29T10:22:55.554Z,80.48
2022-11-29T10:25:26.584Z,80.39
2022-11-29T10:27:56.941Z,79.53
2022-11-29T10:30:25.080Z,80.24
2022-11-29T10:32:57.796Z,79.83
2022-11-29T10:35:29.616Z,80.73
2022-11-29T10:38:30.836Z,80.49
2022-11-29T10:40:50.814Z,79.93
2022-11-29T10:43:19.101Z,81.02
2022-11-29T10:45:50.996Z,81.43
2022-11-29T10:48:21.130Z,80.21
2022-11-29T10:50:52.081Z,80.42
2022-11-29T10:53:22.201Z,80.03
2022-11-29T10:55:53.383Z,80.57
2022-11-29T10:58:28.296Z,80.17
2022-11-29T11:00:58.696Z,80.08
2022-11-29T11:03:32.867Z,79.91
2022-11-29T11:06:05.917Z,80.16
2022-11-29T11:08:34.989Z,80.45
2022-11-29T11:11:05.332Z,81.21
2022-11-29T11:13:34.181Z,81.21
2022-11-29T11:16:11.669Z,80.98
2022-11-29T11:18:40.004Z,81.36
2022-11-29T11:21:12.418Z,80.69
2022-11-29T11:23:53.080Z,80.82
2022-11-29T11:26:21.708Z,81.11
2022-11-29T11:28:52.872Z,81.01
2022-11-29T11:31:29.035Z,82.08
2022-11-29T11:33:57.532Z,81.82
2022-11-29T11:36:28.484Z,81.60
2022-11-29T11:38:58.556Z,82.61
2022-11-29T11:41:49.785Z,82.36
2022-11-29T11:47:18.991Z,82.57
2022-11-29T11:49:52.143Z,82.16
2022-11-29T11:52:23.621Z,82.48
2022-11-29T11:54:55.719Z,82.64
2022-11-29T11:57:24.627Z,82.23
2022-11-29T11:59:54.749Z,83.26
2022-11-29T12:02:28.742Z,82.90
2022-11-29T12:05:00.093Z,82.77
2022-11-29T12:08:06.067Z,82.28
2022-11-29T12:10:25.746Z,82.42
2022-11-29T12:12:55.329Z,83.13
2022-11-29T12:15:25.509Z,82.52
2022-11-29T12:17:57.591Z,82.48
2022-11-29T12:20:28.371Z,82.93
2022-11-29T12:23:19.837Z,82.87
2022-11-29T12:25:51.005Z,83.77
2022-11-29T12:28:21.396Z,83.27
2022-11-29T12:30:56.978Z,83.42
2022-11-29T12:33:32.674Z,83.16
2022-11-29T12:36:24.433Z,83.21
2022-11-29T12:39:05.598Z,84.39
2022-11-29T12:41:41.554Z,85.26
2022-11-29T12:44:19.364Z,84.19
2022-11-29T12:46:57.952Z,85.34
2022-11-29T12:49:46.762Z,84.97
2022-11-29T12:52:19.662Z,84.81
2022-11-29T12:54:58.805Z,85.06
2022-11-29T12:57:35.407Z,85.22
2022-11-29T13:00:10.472Z,85.73
2022-11-29T13:02:58.114Z,85.27
2022-11-29T13:05:35.965Z,85.81
2022-11-29T13:08:18.587Z,85.55
2022-11-29T13:11:03.779Z,85.18
2022-11-29T13:13:39.079Z,85.74
2022-11-29T13:16:18.949Z,86.20
2022-11-29T13:18:52.883Z,87.33
2022-11-29T13:21:24.444Z,87.03
2022-11-29T13:24:08.507Z,86.86
2022-11-29T13:26:40.221Z,86.51
2022-11-29T13:29:09.101Z,86.79
2022-11-29T13:31:39.097Z,86.57
2022-11-29T13:34:10.272Z,87.05
2022-11-29T13:36:49.698Z,86.11
2022-11-29T13:39:30.718Z,87.01
2022-11-29T13:42:06.706Z,86.55
2022-11-29T13:44:38.598Z,86.90
2022-11-29T13:47:08.492Z,87.35
2022-11-29T13:49:55.261Z,87.03
2022-11-29T13:52:30.296Z,87.18
2022-11-29T13:55:18.597Z,87.48
2022-11-29T13:58:15.312Z,87.30
2022-11-29T14:00:50.866Z,87.47
2022-11-29T14:03:40.106Z,87.15
2022-11-29T14:06:14.715Z,87.84
2022-11-29T14:11:45.217Z,88.27
2022-11-29T14:14:23.753Z,88.20
2022-11-29T14:16:54.220Z,87.79
2022-11-29T14:19:28.866Z,87.81
2022-11-29T14:22:22.214Z,87.67
2022-11-29T14:25:16.522Z,88.02
2022-11-29T14:28:05.350Z,87.85
2022-11-29T14:31:01.738Z,87.00
2022-11-29T14:33:37.539Z,87.82
2022-11-29T14:36:25.511Z,88.07
2022-11-29T14:39:00.483Z,87.73
2022-11-29T14:41:34.697Z,87.71
2022-11-29T14:44:19.280Z,88.19
2022-11-29T14:46:49.698Z,87.78
2022-11-29T14:49:23.796Z,88.07
2022-11-29T14:52:21.753Z,88.18
2022-11-29T14:54:56.885Z,88.13
2022-11-29T14:57:56.909Z,88.03
2022-11-29T15:00:26.556Z,87.83
2022-11-29T15:02:58.849Z,87.71
2022-11-29T15:05:32.705Z,87.58
2022-11-29T15:08:08.248Z,88.22
2022-11-29T15:10:38.981Z,87.78
2022-11-29T15:13:08.729Z,89.06
2022-11-29T15:15:45.422Z,89.43
2022-11-29T15:18:25.865Z,89.41
2022-11-29T15:21:04.133Z,89.29
2022-11-29T15:23:41.012Z,88.93
2022-11-29T15:26:16.300Z,88.28
2022-11-29T15:28:44.622Z,88.71
2022-11-29T15:31:15.793Z,88.66
2022-11-29T15:33:46.459Z,88.22
2022-11-29T15:36:19.132Z,88.69
2022-11-29T15:38:49.260Z,88.14
2022-11-29T15:41:23.276Z,87.86
2022-11-29T15:43:54.509Z,88.20
2022-11-29T15:46:25.949Z,88.89
2022-11-29T15:48:55.893Z,88.66
2022-11-29T15:51:28.830Z,88.18
2022-11-29T15:54:12.312Z,87.66
2022-11-29T15:56:45.230Z,88.84
2022-11-29T15:59:32.444Z,88.17
2022-11-29T16:02:02.853Z,88.25
2022-11-29T16:04:32.911Z,88.27
2022-11-29T16:07:01.268Z,88.35
2022-11-29T16:09:33.991Z,88.37
2022-11-29T16:12:03.108Z,87.86
2022-11-29T16:14:31.821Z,87.88
2022-11-29T16:17:03.509Z,88.31
2022-11-29T16:19:34.964Z,88.49
2022-11-29T16:22:15.845Z,88.50
2022-11-29T16:24:53.067Z,88.38
2022-11-29T16:27:22.341Z,88.65
2022-11-29T16:29:52.470Z,88.30
2022-11-29T16:32:26.889Z,88.34
2022-11-29T16:34:57.245Z,87.89
2022-11-29T16:37:27.236Z,88.17
2022-11-29T16:39:59.172Z,87.84
2022-11-29T16:42:28.732Z,87.71
2022-11-29T16:45:30.044Z,88.07
2022-11-29T16:47:59.814Z,87.88
2022-11-29T16:50:30.201Z,89.14
2022-11-29T16:53:34.164Z,89.44
2022-11-29T16:56:02.132Z,89.21
2022-11-29T16:58:30.469Z,88.19
2022-11-29T17:01:02.248Z,87.78
2022-11-29T17:03:30.606Z,87.64
2022-11-29T17:06:00.540Z,88.67
2022-11-29T17:08:28.877Z,87.70
2022-11-29T17:10:57.101Z,87.37
2022-11-29T17:13:25.375Z,87.66
2022-11-29T17:15:53.738Z,88.12
2022-11-29T17:18:22.409Z,87.86
2022-11-29T17:20:50.716Z,88.04
2022-11-29T17:23:20.747Z,88.50
2022-11-29T17:25:57.709Z,87.83
2022-11-29T17:28:26.082Z,87.11
2022-11-29T17:30:54.562Z,87.97
2022-11-29T17:33:23.163Z,87.70
2022-11-29T17:35:51.598Z,88.17
2022-11-29T17:38:21.232Z,88.00
2022-11-29T17:40:49.578Z,87.46
2022-11-29T17:43:17.844Z,88.26
2022-11-29T17:45:46.114Z,87.91
2022-11-29T17:48:14.395Z,87.67
2022-11-29T17:50:43.361Z,87.29
2022-11-29T17:53:11.692Z,87.43
2022-11-29T17:55:41.501Z,87.40
2022-11-29T17:58:09.864Z,87.72
2022-11-29T18:00:38.507Z,88.34
2022-11-29T18:03:06.932Z,88.22
2022-11-29T18:05:35.329Z,87.70
2022-11-29T18:08:04.387Z,88.30
2022-11-29T18:10:32.865Z,87.04
2022-11-29T18:13:02.649Z,86.72
2022-11-29T18:15:31.507Z,86.48
2022-11-29T18:17:59.931Z,86.65
2022-11-29T18:20:28.546Z,87.01
2022-11-29T18:22:57.670Z,87.80
2022-11-29T18:25:41.378Z,87.87
2022-11-29T18:28:11.662Z,87.00
2022-11-29T18:30:40.108Z,87.30
2022-11-29T18:33:09.651Z,86.69
2022-11-29T18:35:38.552Z,87.94
2022-11-29T18:38:15.131Z,87.65
2022-11-29T18:40:46.044Z,87.42
2022-11-29T18:43:17.350Z,86.86
2022-11-29T18:45:45.779Z,86.80
2022-11-29T18:48:14.568Z,87.78
2022-11-29T18:50:42.943Z,88.98
2022-11-29T18:53:11.534Z,87.11
2022-11-29T18:55:40.027Z,86.98
2022-11-29T18:58:09.330Z,86.95
2022-11-29T19:00:39.223Z,86.63
2022-11-29T19:03:07.659Z,85.83
2022-11-29T19:05:36.000Z,85.39
2022-11-29T19:08:04.450Z,86.18
2022-11-29T19:10:32.854Z,85.84
2022-11-29T19:13:01.105Z,86.22
2022-11-29T19:15:29.696Z,86.03
2022-11-29T19:17:59.514Z,86.33
2022-11-29T19:20:27.855Z,86.40
2022-11-29T19:23:00.503Z,86.39
2022-11-29T19:25:30.187Z,86.34
2022-11-29T19:27:58.633Z,87.15
2022-11-29T19:30:27.077Z,86.38
2022-11-29T19:32:55.521Z,86.37
2022-11-29T19:35:25.560Z,86.47
2022-11-29T19:38:03.254Z,87.04
2022-11-29T19:40:31.522Z,86.65
2022-11-29T19:43:00.130Z,86.30
2022-11-29T19:45:28.613Z,85.65
2022-11-29T19:47:56.885Z,87.24
2022-11-29T19:50:26.610Z,86.08
2022-11-29T19:52:55.106Z,86.35
2022-11-29T19:55:23.406Z,86.40
2022-11-29T19:57:51.855Z,86.59
2022-11-29T20:00:21.589Z,86.55
2022-11-29T20:02:50.023Z,86.97
2022-11-29T20:05:18.509Z,86.21
2022-11-29T20:07:49.985Z,86.33
2022-11-29T20:10:20.547Z,86.17
2022-11-29T20:12:48.758Z,85.74
2022-11-29T20:15:17.265Z,85.92
2022-11-29T20:17:45.555Z,84.45
2022-11-29T20:20:14.483Z,84.30
2022-11-29T20:22:42.881Z,83.45
2022-11-29T20:25:13.517Z,84.47
2022-11-29T20:27:41.816Z,84.94
2022-11-29T20:30:11.725Z,84.47
2022-11-29T20:32:40.269Z,83.64
2022-11-29T20:35:10.240Z,84.68
2022-11-29T20:37:53.585Z,84.61
2022-11-29T20:40:26.300Z,84.26
2022-11-29T20:43:01.115Z,84.54
2022-11-29T20:45:30.204Z,84.69
2022-11-29T20:48:02.452Z,84.51
2022-11-29T20:50:32.443Z,84.76
2022-11-29T20:53:21.979Z,84.53
2022-11-29T20:55:51.800Z,84.39
2022-11-29T20:58:20.025Z,84.72
2022-11-29T21:00:48.735Z,86.27
2022-11-29T21:03:17.694Z,86.29
2022-11-29T21:05:46.252Z,86.19
2022-11-29T21:08:15.245Z,85.43
2022-11-29T21:10:43.389Z,86.73
2022-11-29T21:13:14.029Z,85.95
2022-11-29T21:15:43.323Z,85.11
2022-11-29T21:18:19.682Z,85.42
2022-11-29T21:20:52.255Z,85.41
2022-11-29T21:23:24.677Z,85.23
2022-11-29T21:25:57.547Z,84.70
2022-11-29T21:28:31.599Z,84.73
2022-11-29T21:31:00.791Z,85.25
2022-11-29T21:33:29.729Z,85.00
2022-11-29T21:35:59.109Z,86.55
2022-11-29T21:38:28.161Z,85.87
2022-11-29T21:40:56.328Z,85.30
2022-11-29T21:43:50.176Z,85.52
2022-11-29T21:46:14.446Z,85.50
2022-11-29T21:48:42.783Z,85.61
2022-11-29T21:51:12.484Z,86.16
2022-11-29T21:53:41.252Z,85.25
2022-11-29T21:56:11.690Z,85.04
2022-11-29T21:58:40.746Z,84.66
2022-11-29T22:01:11.513Z,85.61
2022-11-29T22:03:41.849Z,86.29
2022-11-29T22:06:11.390Z,86.41
2022-11-29T22:08:40.491Z,85.71
2022-11-29T22:11:10.096Z,86.40
2022-11-29T22:13:58.946Z,86.74
2022-11-29T22:16:27.440Z,86.41
2022-11-29T22:18:57.256Z,84.88
2022-11-29T22:21:25.532Z,84.86
2022-11-29T22:23:54.092Z,85.46
2022-11-29T22:26:22.320Z,84.83
2022-11-29T22:28:50.773Z,84.98
2022-11-29T22:31:19.369Z,84.31
2022-11-29T22:33:47.742Z,85.53
2022-11-29T22:36:17.467Z,85.32
2022-11-29T22:38:45.852Z,85.34
2022-11-29T22:41:14.738Z,85.70
2022-11-29T22:43:43.725Z,85.62
2022-11-29T22:46:14.033Z,85.52
2022-11-29T22:48:43.876Z,85.24
2022-11-29T22:51:13.516Z,85.23
2022-11-29T22:53:45.619Z,85.15
2022-11-29T22:56:13.868Z,85.75
2022-11-29T22:58:42.121Z,84.66
2022-11-29T23:01:12.403Z,84.48
2022-11-29T23:03:42.236Z,85.77
2022-11-29T23:06:12.212Z,85.43
2022-11-29T23:08:42.827Z,85.46
2022-11-29T23:11:13.561Z,86.21
2022-11-29T23:13:42.801Z,85.79
2022-11-29T23:16:12.877Z,85.47
2022-11-29T23:18:42.410Z,85.23
2022-11-29T23:21:12.933Z,85.13
2022-11-29T23:23:42.768Z,85.13
2022-11-29T23:26:18.440Z,85.38
2022-11-29T23:28:46.633Z,85.08
2022-11-29T23:31:15.300Z,85.07
2022-11-29T23:33:44.292Z,84.97
2022-11-29T23:36:14.117Z,85.79
2022-11-29T23:38:44.221Z,85.27
2022-11-29T23:41:12.856Z,85.37
2022-11-29T23:43:42.055Z,85.38
2022-11-29T23:46:13.171Z,85.72
2022-11-29T23:48:41.544Z,85.56
2022-11-29T23:51:09.961Z,84.79
2022-11-29T23:53:38.420Z,84.68
2022-11-29T23:56:09.792Z,84.92
2022-11-29T23:58:38.189Z,84.57
